Time;durP1;ratioP1;P1;durP2;ratioP2;P2;SDS_P1;SDS_P2;PMS_P1;PMS_P2;Temp;Humidity;BMP_temperature;BMP_pressure;BME280_temperature;BME280_humidity;BME280_pressure;Samples;Min_cycle;Max_cycle;Signal;HPM_P1;HPM_P2
2022/05/20 00:02:00;;;;;;;7.85;3.47;;;;;;;-149.78;100.00;50201.56;5130756;27;20035;-77
2022/05/20 00:04:26;;;;;;;10.23;4.13;;;;;;;-149.78;100.00;50217.19;5111054;27;20114;-77
2022/05/20 00:06:52;;;;;;;8.00;3.90;;;;;;;-149.78;100.00;50205.47;5076996;27;20125;-77
2022/05/20 00:09:18;;;;;;;10.95;4.63;;;;;;;-149.78;100.00;50205.47;5111780;27;20119;-77
2022/05/20 00:11:44;;;;;;;10.63;3.85;;;;;;;-149.78;100.00;50221.13;5111419;27;20068;-77
2022/05/20 00:14:10;;;;;;;12.27;4.20;;;;;;;-149.78;100.00;50217.19;5110782;27;20565;-76
2022/05/20 00:16:36;;;;;;;12.48;4.25;;;;;;;-149.78;100.00;50197.66;5110404;27;20042;-76
2022/05/20 00:19:04;;;;;;;10.65;3.80;;;;;;;-149.78;100.00;50182.00;5111463;27;20034;-78
2022/05/20 00:21:31;;;;;;;10.93;3.55;;;;;;;-149.78;100.00;50209.38;5129958;27;20035;-77
2022/05/20 00:23:57;;;;;;;10.55;3.60;;;;;;;-149.78;100.00;50166.34;5111574;27;20035;-78
2022/05/20 00:26:23;;;;;;;10.30;3.63;;;;;;;-149.78;100.00;50217.19;5110166;27;20027;-77
2022/05/20 00:28:49;;;;;;;9.57;3.00;;;;;;;-149.78;100.00;50217.19;5111478;27;20027;-77
2022/05/20 00:31:16;;;;;;;8.02;3.60;;;;;;;-149.78;100.00;50205.47;5093568;27;20118;-77
2022/05/20 00:33:42;;;;;;;8.05;3.20;;;;;;;-149.78;100.00;50170.25;5093675;27;20039;-77
2022/05/20 00:36:09;;;;;;;9.45;3.30;;;;;;;-149.78;100.00;50207.44;5129955;27;20031;-77
2022/05/20 00:38:35;;;;;;;8.40;3.30;;;;;;;-149.78;100.00;50189.81;5090336;27;20038;-77
2022/05/20 00:41:01;;;;;;;12.38;3.53;;;;;;;-149.78;100.00;50217.19;5101143;27;20023;-77
2022/05/20 00:43:26;;;;;;;8.00;3.20;;;;;;;-149.78;100.00;50187.88;5114925;27;20038;-77
2022/05/20 00:45:55;;;;;;;10.35;3.30;;;;;;;-149.78;100.00;50189.81;5128894;27;20035;-77
2022/05/20 00:48:22;;;;;;;6.88;3.10;;;;;;;-149.78;100.00;50223.06;5129265;27;20038;-77
2022/05/20 00:50:57;;;;;;;8.75;2.85;;;;;;;-149.78;100.00;50189.81;5110171;27;20110;-77
2022/05/20 00:53:26;;;;;;;8.63;3.22;;;;;;;-149.78;100.00;50189.81;5109740;27;20042;-77
2022/05/20 00:55:52;;;;;;;9.05;3.60;;;;;;;-149.78;100.00;50213.28;5110329;27;20054;-77
2022/05/20 00:58:20;;;;;;;6.35;2.75;;;;;;;-149.78;100.00;50225.03;5110647;27;20027;-77
2022/05/20 01:00:52;;;;;;;6.07;3.30;;;;;;;-149.78;100.00;50182.00;5129057;27;20454;-78
2022/05/20 01:03:22;;;;;;;6.55;2.80;;;;;;;-149.78;100.00;50209.38;5129178;27;20068;-77
2022/05/20 01:05:50;;;;;;;6.57;3.38;;;;;;;-149.78;100.00;50203.50;5128930;27;20132;-78
2022/05/20 01:08:19;;;;;;;5.22;2.85;;;;;;;-149.78;100.00;50232.84;5110128;27;20118;-77
2022/05/20 01:10:45;;;;;;;6.90;2.80;;;;;;;-149.78;100.00;50213.28;5129109;27;20019;-77
2022/05/20 01:13:12;;;;;;;7.22;3.05;;;;;;;-149.78;100.00;50203.50;5129163;27;20042;-77
2022/05/20 01:15:38;;;;;;;6.18;2.75;;;;;;;-149.78;100.00;50205.47;5109272;27;20046;-78
2022/05/20 01:18:05;;;;;;;8.68;2.97;;;;;;;-149.78;100.00;50166.34;5109417;27;20032;-78
2022/05/20 01:20:35;;;;;;;7.70;2.30;;;;;;;-149.78;100.00;50205.47;5110049;27;20026;-78
2022/05/20 01:23:09;;;;;;;7.53;2.40;;;;;;;-149.78;100.00;50189.81;5110005;27;20031;-78
2022/05/20 01:25:38;;;;;;;7.82;2.65;;;;;;;-149.78;100.00;50174.19;5109688;27;20467;-78
2022/05/20 01:28:05;;;;;;;8.75;2.63;;;;;;;-149.78;100.00;50207.44;5109739;27;20665;-78
2022/05/20 01:30:31;;;;;;;5.13;2.67;;;;;;;-149.78;100.00;50182.00;5109586;27;20085;-77
2022/05/20 01:33:03;;;;;;;6.28;3.00;;;;;;;-149.78;100.00;50193.72;5092156;27;20172;-77
2022/05/20 01:35:36;;;;;;;5.18;2.17;;;;;;;-149.78;100.00;50197.66;5127937;27;20026;-77
2022/05/20 01:38:04;;;;;;;9.88;2.40;;;;;;;-149.78;100.00;50232.84;5108991;27;20046;-77
2022/05/20 01:40:42;;;;;;;9.90;2.92;;;;;;;-149.78;100.00;50201.56;5108905;27;20062;-77
2022/05/20 01:43:18;;;;;;;8.77;2.63;;;;;;;-149.78;100.00;50185.91;5109116;27;20046;-78
2022/05/20 01:46:32;;;;;;;7.20;2.50;;;;;;;-149.78;100.00;50180.03;5108850;27;20031;-79
2022/05/20 01:49:19;;;;;;;10.05;2.58;;;;;;;-149.78;100.00;50221.13;5092506;27;20071;-78
2022/05/20 01:52:23;;;;;;;7.20;2.70;;;;;;;-149.78;100.00;50176.13;5108405;27;20054;-79
2022/05/20 01:55:05;;;;;;;6.20;2.53;;;;;;;-149.78;100.00;50189.81;5091941;27;20406;-78
2022/05/20 01:57:36;;;;;;;8.50;2.72;;;;;;;-149.78;100.00;50189.81;5126686;27;20042;-78
2022/05/20 02:00:26;;;;;;;9.20;3.17;;;;;;;-149.78;100.00;50205.47;5108938;27;20089;-78
2022/05/20 02:03:24;;;;;;;8.75;2.50;;;;;;;-149.78;100.00;50205.47;5127476;27;20478;-78
2022/05/20 02:05:59;;;;;;;8.10;2.55;;;;;;;-149.78;100.00;50201.56;5108414;27;20153;-78
2022/05/20 02:08:37;;;;;;;6.38;2.63;;;;;;;-149.78;100.00;50248.50;5108718;27;20041;-78
2022/05/20 02:11:13;;;;;;;7.70;2.65;;;;;;;-149.78;100.00;50189.81;5091802;27;20457;-78
2022/05/20 02:13:43;;;;;;;6.45;3.10;;;;;;;-149.78;100.00;50213.28;5107236;27;20042;-78
2022/05/20 02:16:19;;;;;;;11.13;2.92;;;;;;;-149.78;100.00;50176.13;5108522;27;20664;-78
2022/05/20 02:18:49;;;;;;;7.15;3.08;;;;;;;-149.78;100.00;50197.66;5127420;27;20088;-79
2022/05/20 02:21:20;;;;;;;8.77;2.60;;;;;;;-149.78;100.00;50174.19;5108457;27;20031;-79
2022/05/20 02:23:52;;;;;;;4.55;2.78;;;;;;;-149.78;100.00;50183.97;5108764;27;20031;-79
2022/05/20 02:26:23;;;;;;;5.90;3.03;;;;;;;-149.78;100.00;50215.25;5108492;27;20023;-78
2022/05/20 02:28:54;;;;;;;5.40;2.53;;;;;;;-149.78;100.00;50217.19;5108430;27;20033;-79
2022/05/20 02:31:25;;;;;;;8.15;2.80;;;;;;;-149.78;100.00;50221.13;5108166;27;20072;-78
2022/05/20 02:33:52;;;;;;;8.48;3.25;;;;;;;-149.78;100.00;50209.38;5124623;27;20159;-78
2022/05/20 02:36:25;;;;;;;5.28;2.78;;;;;;;-149.78;100.00;50182.00;5089632;27;20394;-78
2022/05/20 02:38:51;;;;;;;7.20;2.53;;;;;;;-149.78;100.00;50230.88;5110131;27;20037;-78
2022/05/20 02:41:16;;;;;;;7.70;3.05;;;;;;;-149.78;100.00;50197.66;5134820;27;20405;-78
2022/05/20 02:43:43;;;;;;;10.60;3.30;;;;;;;-149.78;100.00;50228.94;5116927;27;20362;-78
2022/05/20 02:46:09;;;;;;;4.88;2.80;;;;;;;-149.78;100.00;50225.03;5111957;28;20035;-77
2022/05/20 02:48:36;;;;;;;9.05;3.80;;;;;;;-149.78;100.00;50217.19;5111713;27;20072;-78
2022/05/20 02:51:02;;;;;;;8.50;3.15;;;;;;;-149.78;100.00;50178.09;5092724;27;20083;-77
2022/05/20 02:53:28;;;;;;;10.52;3.20;;;;;;;-149.78;100.00;50232.84;5126985;27;20466;-78
2022/05/20 02:55:54;;;;;;;7.40;3.45;;;;;;;-149.78;100.00;50225.03;5108170;27;20080;-78
2022/05/20 03:04:11;;;;;;;6.35;2.83;;;;;;;-149.78;100.00;50201.56;5111616;27;20486;-78
2022/05/20 03:06:39;;;;;;;9.63;2.85;;;;;;;-149.78;100.00;50205.47;5077706;27;20041;-79
2022/05/20 03:09:06;;;;;;;7.03;3.10;;;;;;;-149.78;100.00;50189.81;5126754;27;20027;-78
2022/05/20 03:11:34;;;;;;;10.13;2.83;;;;;;;-149.78;100.00;50209.38;5075797;27;20034;-77
2022/05/20 03:14:04;;;;;;;12.98;3.50;;;;;;;-149.78;100.00;50201.56;5127173;27;20035;-78
2022/05/20 03:16:31;;;;;;;10.35;3.50;;;;;;;-149.78;100.00;50152.66;5109184;28;20035;-78
2022/05/20 03:18:58;;;;;;;8.40;3.47;;;;;;;-149.78;100.00;50197.66;5127465;27;20042;-78
2022/05/20 03:21:24;;;;;;;9.65;4.35;;;;;;;-149.78;100.00;50225.03;5126805;27;20046;-78
2022/05/20 03:23:51;;;;;;;16.00;4.55;;;;;;;-149.78;100.00;50209.38;5127826;27;20372;-79
2022/05/20 03:26:18;;;;;;;12.98;4.28;;;;;;;-149.78;100.00;50228.94;5126713;27;20126;-78
2022/05/20 03:28:44;;;;;;;16.67;4.80;;;;;;;-149.78;100.00;50246.53;5109113;28;20035;-79
2022/05/20 03:31:10;;;;;;;17.30;5.82;;;;;;;-149.78;100.00;50189.81;5108837;28;20035;-78
2022/05/20 03:33:37;;;;;;;15.68;5.03;;;;;;;-149.78;100.00;50195.69;5126928;28;20027;-79
2022/05/20 03:36:04;;;;;;;10.48;5.22;;;;;;;-149.78;100.00;50205.47;5126660;28;20035;-78
2022/05/20 03:38:30;;;;;;;12.40;4.50;;;;;;;-149.78;100.00;50197.66;5108711;28;20291;-78
2022/05/20 03:40:57;;;;;;;12.88;4.57;;;;;;;-149.78;100.00;50236.75;5126073;28;20409;-79
2022/05/20 03:43:23;;;;;;;14.50;4.60;;;;;;;-149.78;100.00;50178.09;5126378;28;20019;-78
2022/05/20 03:45:51;;;;;;;17.65;4.68;;;;;;;-149.78;100.00;50170.25;5108522;28;20068;-79
2022/05/20 03:48:17;;;;;;;14.98;4.80;;;;;;;-149.78;100.00;50185.91;5126794;28;20031;-78
2022/05/20 03:50:43;;;;;;;19.27;4.72;;;;;;;-149.78;100.00;50217.19;5108837;28;20070;-78
2022/05/20 03:53:09;;;;;;;14.43;3.83;;;;;;;-149.78;100.00;50182.00;5127171;28;20474;-78
2022/05/20 03:55:36;;;;;;;12.73;3.75;;;;;;;-149.78;100.00;50185.91;5091799;28;20092;-78
2022/05/20 03:58:01;;;;;;;11.85;4.22;;;;;;;-149.78;100.00;50209.38;5108012;28;20031;-78
2022/05/20 04:00:27;;;;;;;16.65;4.13;;;;;;;-149.78;100.00;50228.94;5108637;28;20050;-78
2022/05/20 04:02:53;;;;;;;6.95;3.10;;;;;;;-149.78;100.00;50213.28;5091725;28;20027;-78
2022/05/20 04:05:19;;;;;;;9.10;3.25;;;;;;;-149.78;100.00;50225.03;5109224;28;20031;-78
2022/05/20 04:07:46;;;;;;;9.85;3.90;;;;;;;-149.78;100.00;50256.31;5090954;28;20023;-78
2022/05/20 04:10:12;;;;;;;6.50;3.67;;;;;;;-149.78;100.00;50205.47;5107656;28;20574;-78
2022/05/20 04:12:41;;;;;;;10.15;4.03;;;;;;;-149.78;100.00;50221.13;5106673;28;20039;-78
2022/05/20 04:15:10;;;;;;;17.17;4.40;;;;;;;-149.78;100.00;50225.03;5128626;28;20028;-78
2022/05/20 04:17:36;;;;;;;13.23;4.32;;;;;;;-149.78;100.00;50201.56;5132858;28;20054;-78
2022/05/20 04:20:03;;;;;;;15.13;5.00;;;;;;;-149.78;100.00;50225.03;5096442;27;20036;-78
2022/05/20 04:22:32;;;;;;;13.43;5.10;;;;;;;-149.78;100.00;50189.81;5116965;27;20027;-77
2022/05/20 04:24:59;;;;;;;13.95;4.72;;;;;;;-149.78;100.00;50217.19;5113322;27;20031;-78
2022/05/20 04:27:27;;;;;;;17.58;5.85;;;;;;;-149.78;100.00;50215.25;5129408;27;20683;-78
2022/05/20 04:29:54;;;;;;;12.52;4.63;;;;;;;-149.78;100.00;50228.94;5110246;27;20050;-78
2022/05/20 04:32:20;;;;;;;13.70;5.00;;;;;;;-149.78;100.00;50230.88;5110745;27;20031;-77
2022/05/20 04:34:46;;;;;;;15.38;4.75;;;;;;;-149.78;100.00;50215.25;5110835;27;20040;-78
2022/05/20 04:37:11;;;;;;;14.45;4.68;;;;;;;-149.78;100.00;50228.94;5130089;27;20058;-79
2022/05/20 04:39:37;;;;;;;11.70;4.45;;;;;;;-149.78;100.00;50189.81;5094524;27;20045;-78
2022/05/20 04:47:33;;;;;;;10.25;4.10;;;;;;;-149.78;100.00;50234.81;5095881;27;20061;-78
2022/05/20 04:50:00;;;;;;;12.18;3.63;;;;;;;-149.78;100.00;50201.56;5112261;27;20043;-78
2022/05/20 04:52:26;;;;;;;10.52;3.42;;;;;;;-149.78;100.00;50223.06;5111010;27;20027;-77
2022/05/20 04:54:55;;;;;;;14.48;3.22;;;;;;;-149.78;100.00;50213.28;5110199;27;20027;-78
2022/05/20 04:57:29;;;;;;;8.95;3.78;;;;;;;-149.78;100.00;50228.94;5110681;27;20047;-77
2022/05/20 05:00:05;;;;;;;9.55;3.20;;;;;;;-149.78;100.00;50185.91;5127860;27;20034;-78
2022/05/20 05:02:32;;;;;;;10.40;3.35;;;;;;;-149.78;100.00;50205.47;5128285;27;20027;-78
2022/05/20 05:04:59;;;;;;;9.65;3.80;;;;;;;-149.78;100.00;50228.94;5093122;27;20039;-78
2022/05/20 05:07:25;;;;;;;12.32;4.03;;;;;;;-149.78;100.00;50225.03;5110421;27;20035;-78
2022/05/20 05:09:50;;;;;;;15.90;4.25;;;;;;;-149.78;100.00;50205.47;5110659;27;20049;-79
2022/05/20 05:12:17;;;;;;;11.57;4.70;;;;;;;-149.78;100.00;50182.00;5110449;27;20122;-78
2022/05/20 05:14:45;;;;;;;12.88;4.63;;;;;;;-149.78;100.00;50228.94;5093337;27;20057;-79
2022/05/20 05:17:13;;;;;;;13.38;4.10;;;;;;;-149.78;100.00;50166.34;5129466;27;20107;-79
2022/05/20 05:19:41;;;;;;;9.85;3.60;;;;;;;-149.78;100.00;50221.13;5110823;27;20027;-78
2022/05/20 05:22:08;;;;;;;9.40;4.00;;;;;;;-149.78;100.00;50180.03;5093224;27;20084;-78
2022/05/20 05:24:35;;;;;;;10.48;3.83;;;;;;;-149.78;100.00;50205.47;5110379;27;20027;-79
2022/05/20 05:27:02;;;;;;;14.65;4.43;;;;;;;-149.78;100.00;50189.81;5093318;27;20027;-79
2022/05/20 05:29:27;;;;;;;14.68;4.88;;;;;;;-149.78;100.00;50189.81;5110527;27;20031;-79
2022/05/20 05:31:54;;;;;;;8.90;4.28;;;;;;;-149.78;100.00;50201.56;5128487;27;20027;-79
2022/05/20 05:34:20;;;;;;;15.45;4.57;;;;;;;-149.78;100.00;50182.00;5075747;27;20039;-78
2022/05/20 05:36:46;;;;;;;11.90;3.65;;;;;;;-149.78;100.00;50197.66;5129273;27;20040;-78
2022/05/20 05:39:12;;;;;;;12.80;3.63;;;;;;;-149.78;100.00;50228.94;5109643;27;20156;-78
2022/05/20 05:41:38;;;;;;;9.90;3.20;;;;;;;-149.78;100.00;50225.03;5109106;27;20039;-78
2022/05/20 05:44:04;;;;;;;14.00;2.95;;;;;;;-149.78;100.00;50221.13;5110359;27;20538;-77
2022/05/20 05:46:30;;;;;;;9.35;2.92;;;;;;;-149.78;100.00;50221.13;5075724;27;20039;-79
2022/05/20 05:48:57;;;;;;;5.03;2.50;;;;;;;-149.78;100.00;50182.00;5109876;27;20056;-78
2022/05/20 05:51:23;;;;;;;8.65;2.30;;;;;;;-149.78;100.00;50174.19;5109916;27;20464;-78
2022/05/20 05:53:49;;;;;;;7.65;2.88;;;;;;;-149.78;100.00;50189.81;5090818;27;20421;-77
2022/05/20 05:56:14;;;;;;;7.60;3.00;;;;;;;-149.78;100.00;50182.00;5105052;27;20064;-77
2022/05/20 05:58:40;;;;;;;7.40;2.50;;;;;;;-149.78;100.00;50178.09;5090626;27;20386;-79
2022/05/20 06:01:08;;;;;;;8.30;1.98;;;;;;;-149.78;100.00;50201.56;5109226;27;20470;-76
2022/05/20 06:03:34;;;;;;;3.60;2.10;;;;;;;-149.78;100.00;50221.13;5106629;27;20042;-80
2022/05/20 06:06:00;;;;;;;10.15;2.47;;;;;;;-149.78;100.00;50197.66;5073686;27;20403;-80
2022/05/20 06:08:25;;;;;;;10.70;2.53;;;;;;;-149.78;100.00;50197.66;5074792;27;20129;-81
2022/05/20 06:10:51;;;;;;;13.00;2.40;;;;;;;-149.78;100.00;50203.50;5108474;27;20155;-81
2022/05/20 06:13:25;;;;;;;8.18;2.40;;;;;;;-149.78;100.00;50213.28;5107914;27;20118;-81
2022/05/20 06:15:52;;;;;;;11.07;2.47;;;;;;;-149.78;100.00;50182.00;5125921;27;20027;-81
2022/05/20 06:18:17;;;;;;;8.85;2.58;;;;;;;-149.78;100.00;50205.47;5108292;27;20470;-82
2022/05/20 06:20:43;;;;;;;8.18;2.63;;;;;;;-149.78;100.00;50205.47;5093041;27;20039;-81
2022/05/20 06:23:09;;;;;;;4.75;2.40;;;;;;;-149.78;100.00;50189.81;5089563;27;20118;-82
2022/05/20 06:25:34;;;;;;;7.65;2.13;;;;;;;-149.78;100.00;50197.66;5107672;27;20114;-81
2022/05/20 06:28:09;;;;;;;7.85;2.30;;;;;;;-149.78;100.00;50178.09;5107043;27;20050;-78
2022/05/20 06:30:36;;;;;;;7.07;2.20;;;;;;;-149.78;100.00;50213.28;5114009;27;20043;-74
2022/05/20 06:33:03;;;;;;;8.48;2.40;;;;;;;-149.78;100.00;50205.47;5105499;27;20394;-69
2022/05/20 06:40:59;;;;;;;11.23;2.53;;;;;;;-149.78;100.00;50225.03;5122837;27;20031;-77
2022/05/20 06:43:26;;;;;;;7.80;2.47;;;;;;;-149.78;100.00;50199.59;5103437;27;20031;-79
2022/05/20 06:45:58;;;;;;;10.73;2.40;;;;;;;-149.78;100.00;50213.28;5126379;27;20066;-79
2022/05/20 06:48:44;;;;;;;;;;;;;;;-149.78;100.00;50197.66;5109539;27;20574;-81
2022/05/20 06:51:12;;;;;;;5.35;2.50;;;;;;;-149.78;100.00;50185.91;5103949;27;19915;-76
2022/05/20 06:53:37;;;;;;;7.25;2.00;;;;;;;-149.78;100.00;50189.81;5122511;27;20039;-75
2022/05/20 06:56:03;;;;;;;7.93;2.00;;;;;;;-149.78;100.00;50197.66;5104400;27;20100;-74
2022/05/20 06:58:31;;;;;;;8.45;2.22;;;;;;;-149.78;100.00;50183.97;5105489;27;20039;-77
2022/05/20 07:00:57;;;;;;;5.40;2.00;;;;;;;-149.78;100.00;50182.00;5105213;27;20038;-74
2022/05/20 07:03:23;;;;;;;8.60;2.10;;;;;;;-149.78;100.00;50182.00;5120133;27;20545;-77
2022/05/20 07:05:50;;;;;;;7.05;2.08;;;;;;;-149.78;100.00;50185.91;5100443;27;20042;-73
2022/05/20 07:08:16;;;;;;;10.30;2.20;;;;;;;-149.78;100.00;50197.66;5084958;27;20035;-76
2022/05/20 07:10:41;;;;;;;4.35;1.90;;;;;;;-149.78;100.00;50182.00;5103042;27;20035;-77
2022/05/20 07:13:07;;;;;;;6.85;1.90;;;;;;;-149.78;100.00;50146.81;5123332;27;20506;-76
2022/05/20 07:15:32;;;;;;;7.43;1.88;;;;;;;-149.78;100.00;50174.19;5122239;27;20042;-76
2022/05/20 07:17:58;;;;;;;3.83;2.22;;;;;;;-149.78;100.00;50176.13;5101402;28;20111;-76
2022/05/20 07:20:24;;;;;;;9.48;2.55;;;;;;;-149.78;100.00;50197.66;5082504;27;20506;-76
2022/05/20 07:22:50;;;;;;;6.90;2.20;;;;;;;-149.78;100.00;50187.88;5098531;28;20031;-74
2022/05/20 07:25:17;;;;;;;4.95;1.67;;;;;;;-149.78;100.00;50162.44;5113036;28;20058;-74
2022/05/20 07:27:43;;;;;;;5.60;1.90;;;;;;;-149.78;100.00;50217.19;5103655;28;20031;-74
2022/05/20 07:30:09;;;;;;;6.32;1.90;;;;;;;-149.78;100.00;50170.25;5125134;27;20046;-76
2022/05/20 07:32:35;;;;;;;6.00;1.85;;;;;;;-149.78;100.00;50170.25;5080898;28;20110;-76
2022/05/20 07:35:00;;;;;;;8.88;2.42;;;;;;;-149.78;100.00;50162.44;5124576;28;20055;-71
2022/05/20 07:37:26;;;;;;;4.93;2.00;;;;;;;-149.78;100.00;50138.97;5093251;28;20038;-72
2022/05/20 07:39:53;;;;;;;5.80;2.28;;;;;;;-149.78;100.00;50182.00;5112896;28;20047;-71
2022/05/20 07:42:18;;;;;;;3.85;1.45;;;;;;;-149.78;100.00;50170.25;5093596;28;20474;-72
2022/05/20 07:44:44;;;;;;;6.20;2.13;;;;;;;-149.78;100.00;50182.00;5104073;28;20028;-71
2022/05/20 07:47:10;;;;;;;3.47;1.45;;;;;;;-149.78;100.00;50146.81;5115304;28;20544;-71
2022/05/20 07:49:36;;;;;;;5.72;1.83;;;;;;;-149.78;100.00;50201.56;5133321;28;20031;-72
2022/05/20 07:52:03;;;;;;;7.75;2.10;;;;;;;-149.78;100.00;50158.53;5126059;28;20041;-73
2022/05/20 07:54:36;;;;;;;3.95;1.67;;;;;;;-149.78;100.00;50150.72;5120953;27;20032;-72
2022/05/20 07:57:11;;;;;;;6.07;1.98;;;;;;;-149.78;100.00;50185.91;5126794;27;20051;-72
2022/05/20 07:59:50;;;;;;;3.35;1.60;;;;;;;-149.78;100.00;50152.66;5125304;27;20054;-72
2022/05/20 08:02:20;;;;;;;7.80;1.73;;;;;;;-149.78;100.00;50154.63;5107759;27;20026;-72
2022/05/20 08:05:01;;;;;;;7.75;2.30;;;;;;;-149.78;100.00;50156.56;5109224;27;20021;-72
2022/05/20 08:07:34;;;;;;;4.97;1.85;;;;;;;-149.78;100.00;50150.72;5116799;28;20028;-73
2022/05/20 08:10:07;;;;;;;5.15;1.60;;;;;;;-149.78;100.00;50158.53;5098902;28;20040;-73
2022/05/20 08:12:33;;;;;;;3.55;1.30;;;;;;;-149.78;100.00;50138.97;5117167;28;20031;-73
2022/05/20 08:14:59;;;;;;;2.55;1.42;;;;;;;-149.78;100.00;50131.16;5107731;27;20366;-73
2022/05/20 08:17:25;;;;;;;3.53;1.38;;;;;;;-149.78;100.00;50162.44;5125080;27;20455;-73
2022/05/20 08:19:54;;;;;;;6.07;1.95;;;;;;;-149.78;100.00;50162.44;5103355;27;20031;-73
2022/05/20 08:22:24;;;;;;;1.63;1.20;;;;;;;-149.78;100.00;50185.91;5128998;27;20028;-73
2022/05/20 08:24:52;;;;;;;2.30;1.05;;;;;;;-149.78;100.00;50142.88;5104499;27;20087;-73
2022/05/20 08:27:19;;;;;;;3.55;1.55;;;;;;;-149.78;100.00;50158.53;5102498;27;20046;-72
2022/05/20 08:29:45;;;;;;;4.45;1.50;;;;;;;-149.78;100.00;50170.25;5135102;27;20038;-72
2022/05/20 08:32:12;;;;;;;5.53;1.42;;;;;;;-149.78;100.00;50158.53;5126042;27;20122;-72
2022/05/20 08:34:38;;;;;;;7.97;1.70;;;;;;;-149.78;100.00;50166.34;5105482;27;20030;-72
2022/05/20 08:37:05;;;;;;;3.97;1.33;;;;;;;-149.78;100.00;50178.09;5097713;28;20125;-72
2022/05/20 08:39:31;;;;;;;4.53;1.40;;;;;;;-149.78;100.00;50146.81;5098044;28;20500;-73
2022/05/20 08:41:57;;;;;;;3.05;1.52;;;;;;;-149.78;100.00;50182.00;5098732;27;20088;-73
2022/05/20 08:44:24;;;;;;;5.70;1.50;;;;;;;-149.78;100.00;50176.13;5136374;27;20020;-72
2022/05/20 08:46:51;;;;;;;4.47;1.40;;;;;;;-149.78;100.00;50162.44;5107814;28;20482;-72
2022/05/20 08:49:21;;;;;;;4.18;1.45;;;;;;;-149.78;100.00;50135.06;5101610;27;20378;-71
2022/05/20 08:51:50;;;;;;;3.17;1.17;;;;;;;-149.78;100.00;50138.97;5122719;27;20034;-71
2022/05/20 08:54:16;;;;;;;4.43;1.42;;;;;;;-149.78;100.00;50146.81;5082604;28;20097;-71
2022/05/20 08:56:43;;;;;;;7.00;1.67;;;;;;;-149.78;100.00;50150.72;5098265;28;20055;-71
2022/05/20 08:59:12;;;;;;;9.73;2.45;;;;;;;-149.78;100.00;50154.63;5097036;28;20084;-72
2022/05/20 09:01:43;;;;;;;7.05;2.58;;;;;;;-149.78;100.00;50164.41;5108511;27;20391;-71
2022/05/20 09:04:13;;;;;;;5.38;1.60;;;;;;;-149.78;100.00;50138.97;5115660;28;20027;-71
2022/05/20 09:06:56;;;;;;;5.00;1.25;;;;;;;-149.78;100.00;50170.25;5091479;27;20027;-71
2022/05/20 09:09:27;;;;;;;5.45;1.42;;;;;;;-149.78;100.00;50127.25;5107800;27;20030;-71
2022/05/20 09:11:55;;;;;;;6.88;1.50;;;;;;;-149.78;100.00;50138.97;5099209;27;20397;-71
2022/05/20 09:17:15;;;;;;;4.80;1.40;;;;;;;-149.78;100.00;50158.53;5117762;27;20083;-71
2022/05/20 09:20:01;;;;;;;2.70;1.17;;;;;;;-149.78;100.00;50158.53;5114839;27;20031;-72
2022/05/20 09:22:36;;;;;;;6.85;1.15;;;;;;;-149.78;100.00;50127.25;5100538;27;20024;-72
2022/05/20 09:25:27;;;;;;;6.57;1.27;;;;;;;-149.78;100.00;50185.91;5120060;27;20031;-72
2022/05/20 09:28:25;;;;;;;3.53;1.45;;;;;;;-149.78;100.00;50166.34;5112418;27;20432;-72
2022/05/20 09:31:02;;;;;;;4.93;1.40;;;;;;;-149.78;100.00;50144.84;5118563;27;20200;-70
2022/05/20 09:33:31;;;;;;;5.03;1.45;;;;;;;-149.78;100.00;50135.06;5117974;27;20043;-71
2022/05/20 09:35:59;;;;;;;4.28;1.45;;;;;;;-149.78;100.00;50166.34;5126087;27;20036;-70
2022/05/20 09:38:30;;;;;;;4.15;1.27;;;;;;;-149.78;100.00;50119.41;5115542;28;20156;-71
2022/05/20 09:40:55;;;;;;;6.55;1.83;;;;;;;-149.78;100.00;50135.06;5134583;27;20071;-71
2022/05/20 09:43:28;;;;;;;8.05;1.40;;;;;;;-149.78;100.00;50119.41;5115778;28;20530;-71
2022/05/20 09:45:56;;;;;;;6.32;1.27;;;;;;;-149.78;100.00;50135.06;5115714;27;20034;-70
2022/05/20 09:48:51;;;;;;;5.72;1.55;;;;;;;-149.78;100.00;50088.13;5135922;27;20405;-71
2022/05/20 09:51:30;;;;;;;4.72;1.88;;;;;;;-149.78;100.00;50119.41;5117728;27;20117;-72
2022/05/20 09:54:12;;;;;;;4.80;1.60;;;;;;;-149.78;100.00;50103.78;5135710;27;20038;-71
2022/05/20 09:56:57;;;;;;;7.47;1.25;;;;;;;-149.78;100.00;50105.72;5135525;27;20486;-72
2022/05/20 09:59:34;;;;;;;5.70;1.42;;;;;;;-149.78;100.00;50099.88;5115674;27;20034;-71
2022/05/20 10:02:31;;;;;;;2.58;1.20;;;;;;;-149.78;100.00;50111.59;5115121;28;20581;-71
2022/05/20 10:05:10;;;;;;;5.10;1.60;;;;;;;-149.78;100.00;50084.22;5121628;27;20027;-71
2022/05/20 10:07:55;;;;;;;2.80;1.40;;;;;;;-149.78;100.00;50092.03;5135583;27;20027;-71
2022/05/20 10:10:50;;;;;;;4.35;1.50;;;;;;;-149.78;100.00;50095.94;5116980;27;20062;-71
2022/05/20 10:13:35;;;;;;;5.97;1.40;;;;;;;-149.78;100.00;50135.06;5117072;27;20027;-71
2022/05/20 10:16:27;;;;;;;5.25;1.70;;;;;;;-149.78;100.00;50107.69;5099860;27;20117;-71
2022/05/20 10:19:11;;;;;;;5.35;1.45;;;;;;;-149.78;100.00;50119.41;5113955;27;20035;-72
2022/05/20 10:21:56;;;;;;;5.93;1.38;;;;;;;-149.78;100.00;50064.66;5107214;27;20095;-71
2022/05/20 10:24:49;;;;;;;5.75;1.42;;;;;;;-149.78;100.00;50092.03;5119706;27;20036;-72
2022/05/20 10:27:42;;;;;;;6.53;1.88;;;;;;;-149.78;100.00;50105.72;5108786;28;20386;-71
2022/05/20 10:33:14;;;;;;;7.22;1.88;;;;;;;-149.78;100.00;50099.88;5118597;27;20547;-73
2022/05/20 10:36:00;;;;;;;5.45;1.52;;;;;;;-149.78;100.00;50099.88;5096488;28;20149;-71
2022/05/20 10:38:49;;;;;;;4.35;1.58;;;;;;;-149.78;100.00;50092.03;5118231;27;20023;-72
2022/05/20 10:41:30;;;;;;;6.55;1.40;;;;;;;-149.78;100.00;50109.66;5120317;27;20035;-69
2022/05/20 10:50:12;;;;;;;5.45;1.85;;;;;;;-149.78;100.00;50107.69;5122897;27;20027;-69
2022/05/20 10:52:58;;;;;;;4.68;2.15;;;;;;;-149.78;100.00;50127.25;5114147;28;20424;-72
2022/05/20 10:55:30;;;;;;;3.97;1.70;;;;;;;-149.78;100.00;50117.47;5103198;27;20046;-72
2022/05/20 10:58:27;;;;;;;7.25;2.22;;;;;;;-149.78;100.00;50121.38;5114906;27;20053;-70
2022/05/20 11:00:55;;;;;;;8.55;2.75;;;;;;;-149.78;100.00;50178.09;5116291;27;20037;-72
2022/05/20 11:03:37;;;;;;;7.53;2.80;;;;;;;-149.78;100.00;50131.16;5134377;27;20023;-72
2022/05/20 11:06:05;;;;;;;6.60;2.50;;;;;;;-149.78;100.00;50138.97;5133420;27;20070;-72
2022/05/20 11:09:00;;;;;;;5.75;2.00;;;;;;;-149.78;100.00;50154.63;5133890;27;20271;-72
2022/05/20 11:11:45;;;;;;;9.85;2.35;;;;;;;-149.78;100.00;50172.22;5134225;27;20039;-72
2022/05/20 11:14:16;;;;;;;9.13;2.05;;;;;;;-149.78;100.00;50150.72;5116031;27;20035;-72
2022/05/20 11:17:01;;;;;;;5.78;1.90;;;;;;;-149.78;100.00;50133.09;5115705;27;20027;-71
2022/05/20 11:19:32;;;;;;;5.18;1.52;;;;;;;-149.78;100.00;50123.34;5105251;28;21410;-71
2022/05/20 11:22:39;;;;;;;7.40;1.63;;;;;;;-149.78;100.00;50109.66;5106210;27;20035;-71
2022/05/20 11:25:43;;;;;;;5.32;1.67;;;;;;;-149.78;100.00;50127.25;5058398;27;20062;-71
2022/05/20 11:28:33;;;;;;;4.50;1.52;;;;;;;-149.78;100.00;50138.97;5078309;27;20049;-71
2022/05/20 11:31:09;;;;;;;6.03;1.40;;;;;;;-149.78;100.00;50158.53;5105205;28;20039;-71
2022/05/20 11:34:00;;;;;;;22.17;12.40;;;;;;;-149.78;100.00;50142.88;5123749;28;20486;-71
2022/05/20 11:36:35;;;;;;;9.70;4.45;;;;;;;-149.78;100.00;50131.16;5122535;28;20390;-71
2022/05/20 11:39:14;;;;;;;8.20;2.20;;;;;;;-149.78;100.00;50117.47;5104289;28;20043;-72
2022/05/20 11:41:49;;;;;;;10.60;2.30;;;;;;;-149.78;100.00;50119.41;5122787;28;20033;-71
2022/05/20 11:44:51;;;;;;;5.47;1.70;;;;;;;-149.78;100.00;50148.75;5105769;28;20019;-70
2022/05/20 11:47:45;;;;;;;4.82;1.98;;;;;;;-149.78;100.00;50135.06;5124001;28;20108;-70
2022/05/20 11:50:38;;;;;;;8.35;2.47;;;;;;;-149.78;100.00;50105.72;5106702;28;20024;-71
2022/05/20 11:53:11;;;;;;;;;;;;;;;-149.78;100.00;50129.19;5105188;28;20780;-71
2022/05/20 11:56:00;;;;;;;7.80;2.40;;;;;;;-149.78;100.00;50115.50;5118437;28;20318;-71